createdAt,value
2018-03-07T00:01:29.533Z,23.29
2018-03-07T00:03:57.829Z,23.29
2018-03-07T00:06:26.159Z,23.29
2018-03-07T00:08:54.438Z,23.29
2018-03-07T00:11:22.703Z,23.30
2018-03-07T00:13:51.006Z,23.29
2018-03-07T00:16:19.302Z,23.30
2018-03-07T00:18:47.594Z,23.30
2018-03-07T00:21:15.885Z,23.29
2018-03-07T00:23:44.165Z,23.30
2018-03-07T00:26:12.464Z,23.31
2018-03-07T00:28:40.767Z,23.29
2018-03-07T00:31:09.055Z,23.30
2018-03-07T00:33:37.344Z,23.30
2018-03-07T00:36:05.688Z,23.30
2018-03-07T00:38:33.975Z,23.31
2018-03-07T00:41:02.258Z,23.31
2018-03-07T00:43:30.537Z,23.30
2018-03-07T00:45:58.872Z,23.30
2018-03-07T00:48:27.294Z,23.30
2018-03-07T00:50:55.587Z,23.31
2018-03-07T00:53:23.869Z,23.31
2018-03-07T00:55:52.190Z,23.31
2018-03-07T00:58:20.470Z,23.31
2018-03-07T01:00:48.762Z,23.31
2018-03-07T01:03:17.060Z,23.31
2018-03-07T01:05:45.342Z,23.32
2018-03-07T01:08:13.645Z,23.31
2018-03-07T01:10:41.944Z,23.32
2018-03-07T01:13:10.265Z,23.31
2018-03-07T01:15:38.578Z,23.31
2018-03-07T01:18:06.885Z,23.32
2018-03-07T01:20:35.173Z,23.31
2018-03-07T01:23:03.449Z,23.32
2018-03-07T01:25:31.731Z,23.33
2018-03-07T01:28:00.060Z,23.33
2018-03-07T01:30:28.345Z,23.33
2018-03-07T01:32:56.631Z,23.32
2018-03-07T01:35:24.931Z,23.33
2018-03-07T01:37:53.237Z,23.33
2018-03-07T01:40:21.515Z,23.33
2018-03-07T01:42:49.799Z,23.33
2018-03-07T01:45:18.120Z,23.33
2018-03-07T01:47:46.417Z,23.34
2018-03-07T01:50:14.734Z,23.34
2018-03-07T01:52:43.023Z,23.34
2018-03-07T01:55:11.319Z,23.34
2018-03-07T01:57:39.597Z,23.34
2018-03-07T02:00:07.896Z,23.35
2018-03-07T02:02:36.200Z,23.35
2018-03-07T02:05:04.483Z,23.35
2018-03-07T02:07:32.779Z,23.36
2018-03-07T02:10:01.060Z,23.36
2018-03-07T02:12:29.373Z,23.35
2018-03-07T02:14:57.654Z,23.35
2018-03-07T02:17:25.964Z,23.35
2018-03-07T02:19:54.251Z,23.35
2018-03-07T02:22:22.541Z,23.35
2018-03-07T02:24:50.820Z,23.34
2018-03-07T02:27:19.117Z,23.35
2018-03-07T02:29:47.394Z,23.35
2018-03-07T02:32:15.679Z,23.36
2018-03-07T02:34:43.976Z,23.36
2018-03-07T02:37:12.270Z,23.36
2018-03-07T02:39:40.546Z,23.36
2018-03-07T02:42:08.887Z,23.37
2018-03-07T02:44:37.153Z,23.37
2018-03-07T02:47:05.445Z,23.37
2018-03-07T02:49:33.729Z,23.37
2018-03-07T02:52:02.025Z,23.37
2018-03-07T02:54:30.310Z,23.37
2018-03-07T02:56:58.781Z,23.38
2018-03-07T02:59:27.073Z,23.37
2018-03-07T03:01:55.358Z,23.37
2018-03-07T03:04:23.641Z,23.37
2018-03-07T03:06:51.956Z,23.37
2018-03-07T03:09:20.263Z,23.37
2018-03-07T03:11:48.597Z,23.37
2018-03-07T03:14:16.883Z,23.36
2018-03-07T03:16:45.181Z,23.36
2018-03-07T03:19:13.493Z,23.36
2018-03-07T03:21:41.776Z,23.35
2018-03-07T03:24:10.053Z,23.35
2018-03-07T03:26:38.338Z,23.19
2018-03-07T03:29:06.625Z,23.05
2018-03-07T03:31:34.900Z,23.05
2018-03-07T03:34:03.196Z,23.07
2018-03-07T03:36:31.504Z,23.10
2018-03-07T03:38:59.771Z,23.12
2018-03-07T03:41:28.080Z,23.13
2018-03-07T03:43:56.428Z,23.15
2018-03-07T03:46:24.711Z,23.16
2018-03-07T03:48:52.995Z,23.17
2018-03-07T03:51:21.278Z,23.18
2018-03-07T03:53:49.549Z,23.18
2018-03-07T03:56:17.859Z,23.18
2018-03-07T03:58:46.150Z,23.20
2018-03-07T04:01:14.463Z,23.20
2018-03-07T04:03:42.756Z,23.21
2018-03-07T04:06:11.082Z,23.21
2018-03-07T04:08:39.379Z,23.21
2018-03-07T04:11:07.685Z,23.24
2018-03-07T04:13:36.015Z,23.28
2018-03-07T04:16:04.301Z,23.28
2018-03-07T04:18:32.650Z,23.29
2018-03-07T04:21:01.224Z,23.32
2018-03-07T04:23:29.514Z,23.35
2018-03-07T04:25:57.825Z,23.38
2018-03-07T04:28:26.122Z,23.40
2018-03-07T04:30:54.412Z,23.43
2018-03-07T04:33:22.689Z,23.44
2018-03-07T04:35:50.981Z,23.46
2018-03-07T04:38:19.337Z,23.47
2018-03-07T04:40:47.621Z,23.48
2018-03-07T04:43:15.898Z,23.49
2018-03-07T04:45:44.197Z,23.50
2018-03-07T04:48:12.510Z,23.50
2018-03-07T04:50:40.794Z,23.50
2018-03-07T04:53:09.093Z,23.49
2018-03-07T04:55:37.381Z,23.49
2018-03-07T04:58:05.741Z,23.48
2018-03-07T05:00:34.145Z,23.47
2018-03-07T05:03:02.555Z,23.48
2018-03-07T05:05:30.845Z,23.47
2018-03-07T05:07:59.145Z,23.47
2018-03-07T05:10:27.450Z,23.47
2018-03-07T05:12:55.746Z,23.46
2018-03-07T19:55:25.136Z,23.58
2018-03-07T19:57:53.426Z,23.59
2018-03-07T20:00:21.897Z,23.60
2018-03-07T20:02:50.268Z,23.61
2018-03-07T20:05:18.894Z,23.63
2018-03-07T20:07:47.188Z,23.63
2018-03-07T20:10:15.493Z,23.63
2018-03-07T20:12:44.898Z,23.63
2018-03-07T20:15:13.270Z,23.63
2018-03-07T20:17:41.473Z,23.63
2018-03-07T20:20:09.915Z,23.62
2018-03-07T20:22:38.212Z,23.61
2018-03-07T20:25:06.728Z,23.60
2018-03-07T20:27:35.437Z,23.59
2018-03-07T20:30:03.751Z,23.59
2018-03-07T20:32:32.396Z,23.58
2018-03-07T20:35:01.158Z,23.57
2018-03-07T20:37:42.156Z,23.56
2018-03-07T20:40:10.442Z,23.55
2018-03-07T20:42:38.816Z,23.55
2018-03-07T20:45:07.255Z,23.55
2018-03-07T20:47:35.533Z,23.54
2018-03-07T20:50:03.837Z,23.54
2018-03-07T20:52:32.174Z,23.54
2018-03-07T20:55:00.467Z,23.53
2018-03-07T20:57:28.943Z,23.52
2018-03-07T20:59:57.251Z,23.52
2018-03-07T21:02:25.565Z,23.51
2018-03-07T21:04:53.868Z,23.51
2018-03-07T21:07:22.156Z,23.51
2018-03-07T21:09:50.446Z,23.49
2018-03-07T21:12:18.767Z,23.49
2018-03-07T21:14:47.077Z,23.49
2018-03-07T21:17:15.357Z,23.49
2018-03-07T21:19:43.706Z,23.49
2018-03-07T21:22:12.025Z,23.49
2018-03-07T21:24:40.516Z,23.48
2018-03-07T21:27:08.813Z,23.48
2018-03-07T21:29:37.093Z,23.48
2018-03-07T21:32:05.372Z,23.47
2018-03-07T21:34:33.676Z,23.47
2018-03-07T21:37:02.023Z,23.48
2018-03-07T21:39:30.396Z,23.47
2018-03-07T21:41:58.682Z,23.46
2018-03-07T21:44:26.986Z,23.46
2018-03-07T21:46:55.286Z,23.45
2018-03-07T21:49:23.592Z,23.46
2018-03-07T21:51:51.873Z,23.45
2018-03-07T21:54:19.924Z,23.45
2018-03-07T21:56:48.232Z,23.45
2018-03-07T21:59:16.526Z,23.44
2018-03-07T22:01:44.809Z,23.45
2018-03-07T22:04:13.091Z,23.45
2018-03-07T22:06:41.449Z,23.45
2018-03-07T22:09:09.733Z,23.45
2018-03-07T22:11:38.030Z,23.44
2018-03-07T22:14:06.315Z,23.45
2018-03-07T22:16:34.658Z,23.44
2018-03-07T22:19:02.946Z,23.44
2018-03-07T22:21:31.233Z,23.44
2018-03-07T22:23:59.520Z,23.44
2018-03-07T22:26:27.817Z,23.44
2018-03-07T22:28:56.104Z,23.44
2018-03-07T22:31:24.445Z,23.44
2018-03-07T22:33:52.748Z,23.44
2018-03-07T22:36:21.050Z,23.44
2018-03-07T22:38:49.361Z,23.44
2018-03-07T22:41:17.668Z,23.44
2018-03-07T22:43:45.969Z,23.43
2018-03-07T22:46:14.274Z,23.44
2018-03-07T22:48:42.578Z,23.44
2018-03-07T22:51:10.877Z,23.44
2018-03-07T22:53:39.190Z,23.44
2018-03-07T22:56:07.544Z,23.43
2018-03-07T22:58:35.820Z,23.44
2018-03-07T23:01:04.116Z,23.45
2018-03-07T23:03:32.419Z,23.44
2018-03-07T23:06:01.677Z,23.44
2018-03-07T23:08:29.971Z,23.45
2018-03-07T23:10:58.288Z,23.44
2018-03-07T23:13:26.768Z,23.44
2018-03-07T23:15:55.057Z,23.44
2018-03-07T23:18:23.330Z,23.44
2018-03-07T23:20:51.614Z,23.44
2018-03-07T23:23:19.902Z,23.45
2018-03-07T23:25:48.194Z,23.44
2018-03-07T23:28:16.475Z,23.44
2018-03-07T23:30:44.752Z,23.45
2018-03-07T23:33:13.046Z,23.44
2018-03-07T23:35:41.353Z,23.45
2018-03-07T23:38:09.710Z,23.44
2018-03-07T23:40:38.002Z,23.44
2018-03-07T23:43:06.292Z,23.44
2018-03-07T23:45:34.763Z,23.44
2018-03-07T23:48:03.054Z,23.43
2018-03-07T23:50:31.365Z,23.44
2018-03-07T23:52:59.855Z,23.44
2018-03-07T23:55:28.182Z,23.44
2018-03-07T23:57:56.483Z,23.44
